Time;durP1;ratioP1;P1;durP2;ratioP2;P2;SDS_P1;SDS_P2;PMS_P1;PMS_P2;Temp;Humidity;BMP_temperature;BMP_pressure;BME280_temperature;BME280_humidity;BME280_pressure;Samples;Min_cycle;Max_cycle;Signal;HPM_P1;HPM_P2
2022/01/24 00:00:36;;;;;;;98.72;38.97;;;;;;;4.20;53.99;96673.81;5028918;28;20033;-60
2022/01/24 00:03:02;;;;;;;93.40;37.00;;;;;;;4.54;54.01;96672.25;5030745;28;20071;-60
2022/01/24 00:05:28;;;;;;;106.43;39.67;;;;;;;5.22;54.29;96793.03;5032752;28;20486;-60
2022/01/24 00:07:53;;;;;;;100.10;39.00;;;;;;;5.29;54.45;96806.09;5032602;28;20028;-60
2022/01/24 00:10:22;;;;;;;88.43;36.92;;;;;;;3.98;53.83;96639.28;5031437;28;20128;-60
2022/01/24 00:13:03;;;;;;;98.63;38.90;;;;;;;4.74;54.18;96721.22;5032357;28;20419;-60
2022/01/24 00:18:13;;;;;;;97.03;38.60;;;;;;;4.38;54.35;96701.91;5032309;28;20025;-60
2022/01/24 00:26:44;;;;;;;100.82;38.40;;;;;;;5.22;54.32;96800.94;5032857;28;20036;-61
2022/01/24 00:29:05;;;;;;;94.60;37.85;;;;;;;5.77;54.69;96896.63;5032085;28;20540;-61
2022/01/24 00:31:30;;;;;;;95.15;36.85;;;;;;;4.06;54.19;96623.19;5032375;28;20025;-61
2022/01/24 00:33:56;;;;;;;85.97;34.80;;;;;;;5.60;54.23;96885.97;5032545;28;20053;-60
2022/01/24 00:36:21;;;;;;;82.35;34.53;;;;;;;4.14;54.46;96630.72;5031892;28;20048;-60
2022/01/24 00:38:47;;;;;;;92.43;37.70;;;;;;;5.05;54.47;96784.19;5032304;28;20617;-60
2022/01/24 00:41:15;;;;;;;90.85;35.97;;;;;;;4.80;54.24;96741.38;5031894;28;20030;-62
2022/01/24 00:46:34;;;;;;;91.70;34.67;;;;;;;4.74;54.83;96748.38;5031677;28;20036;-61
2022/01/24 00:56:59;;;;;;;87.18;34.38;;;;;;;4.59;54.41;96680.28;5031127;28;20144;-60
2022/01/24 00:59:25;;;;;;;92.72;35.38;;;;;;;5.96;54.72;96869.91;5031673;28;20072;-60
2022/01/24 01:01:51;;;;;;;74.80;32.38;;;;;;;5.34;53.96;96784.31;5031804;28;20087;-60
2022/01/24 01:04:17;;;;;;;86.60;34.17;;;;;;;3.98;54.78;96581.38;5031827;28;20426;-60
2022/01/24 01:06:44;;;;;;;93.20;37.05;;;;;;;4.13;54.40;96573.84;5031527;28;20440;-60
2022/01/24 01:20:07;;;;;;;100.60;37.05;;;;;;;3.79;54.20;96506.16;5031665;28;20044;-60
2022/01/24 01:22:32;;;;;;;91.38;35.53;;;;;;;4.09;54.10;96558.72;5031451;28;20018;-60
2022/01/24 01:24:58;;;;;;;106.15;38.50;;;;;;;5.84;54.16;96847.97;5031379;28;20025;-60
2022/01/24 01:27:35;;;;;;;114.53;39.60;;;;;;;5.80;54.23;96833.63;5030681;28;20113;-60
2022/01/24 01:30:14;;;;;;;110.93;38.92;;;;;;;5.61;54.21;96789.91;5030069;28;20540;-60
2022/01/24 01:56:09;;;;;;;94.88;35.60;;;;;;;4.82;54.82;96670.81;5016434;28;20029;-61
2022/01/24 01:58:35;;;;;;;92.53;35.00;;;;;;;3.74;54.73;96537.63;5030276;28;20092;-61
2022/01/24 02:01:03;;;;;;;88.03;34.20;;;;;;;4.20;54.56;96576.38;5030531;28;20039;-59
2022/01/24 02:03:30;;;;;;;100.80;37.88;;;;;;;4.95;54.46;96718.00;5030596;28;20558;-59
2022/01/24 02:05:56;;;;;;;108.68;37.60;;;;;;;5.81;54.40;96839.69;5030525;28;20052;-60
2022/01/24 02:08:27;;;;;;;109.65;37.22;;;;;;;5.79;54.54;96844.41;5030231;28;20463;-60
2022/01/24 02:10:53;;;;;;;112.43;37.97;;;;;;;3.96;54.14;96572.91;5030118;28;20036;-60
2022/01/24 02:13:18;;;;;;;98.00;36.92;;;;;;;4.02;53.85;96614.13;5028801;28;20041;-60
2022/01/24 02:15:57;;;;;;;106.32;36.85;;;;;;;4.73;54.27;96720.41;5030511;28;20088;-60
2022/01/24 02:21:24;;;;;;;95.88;34.90;;;;;;;5.35;54.69;96807.00;5030557;28;20021;-61
2022/01/24 02:23:50;;;;;;;90.07;33.33;;;;;;;4.53;54.42;96688.31;5030366;28;20025;-60
2022/01/24 02:26:20;;;;;;;93.65;34.60;;;;;;;3.24;54.51;96461.69;5029091;28;20018;-60
2022/01/24 02:29:07;;;;;;;70.15;30.45;;;;;;;4.91;54.85;96709.78;5030412;28;20124;-60
2022/01/24 02:31:47;;;;;;;81.93;32.50;;;;;;;4.08;54.71;96559.75;5030030;28;20108;-60
2022/01/24 02:34:24;;;;;;;90.82;33.70;;;;;;;4.81;55.27;96663.91;5029015;28;20025;-60
2022/01/24 02:36:51;;;;;;;82.05;31.35;;;;;;;4.12;54.65;96553.81;5029730;28;20426;-60
2022/01/24 02:39:43;;;;;;;85.50;32.38;;;;;;;4.44;54.44;96606.16;5029832;28;20487;-60
2022/01/24 02:50:27;;;;;;;75.55;29.60;;;;;;;5.62;54.80;96780.94;5030172;28;20043;-60
2022/01/24 02:52:53;;;;;;;68.35;28.80;;;;;;;3.44;54.48;96450.84;5029988;28;20068;-60
2022/01/24 02:55:18;;;;;;;87.28;32.28;;;;;;;4.52;54.54;96632.16;5029648;28;20029;-62
2022/01/24 02:57:44;;;;;;;73.95;30.05;;;;;;;3.32;54.04;96440.28;5027481;28;20041;-60
2022/01/24 03:00:10;;;;;;;81.13;31.63;;;;;;;4.91;54.08;96650.94;5029598;28;20029;-60
2022/01/24 03:02:35;;;;;;;94.70;33.00;;;;;;;5.09;54.77;96685.09;5029703;28;20056;-60
2022/01/24 03:05:01;;;;;;;75.70;30.88;;;;;;;3.80;53.67;96494.59;5029717;28;20596;-60
2022/01/24 03:07:26;;;;;;;72.10;29.73;;;;;;;4.10;53.97;96519.00;5029112;28;20024;-60
2022/01/24 03:09:54;;;;;;;83.55;31.90;;;;;;;4.12;54.04;96545.09;5028354;28;20538;-61
2022/01/24 03:12:40;;;;;;;92.95;32.97;;;;;;;4.94;53.48;96647.84;5028349;28;20035;-60
2022/01/24 03:15:06;;;;;;;91.63;32.30;;;;;;;4.23;53.26;96549.56;5029295;28;20451;-59
2022/01/24 03:17:32;;;;;;;87.72;31.63;;;;;;;3.69;53.05;96474.34;5027628;28;20028;-59
2022/01/24 03:19:57;;;;;;;80.35;31.38;;;;;;;4.02;53.26;96513.28;5029424;28;20033;-61
2022/01/24 03:22:22;;;;;;;80.47;31.75;;;;;;;3.60;53.13;96429.13;5029386;28;20033;-62
2022/01/24 03:24:49;;;;;;;97.38;34.20;;;;;;;5.37;53.54;96720.50;5029437;28;20026;-61
2022/01/24 03:27:14;;;;;;;74.22;30.10;;;;;;;5.06;53.57;96672.38;5028475;28;20021;-61
2022/01/24 03:29:40;;;;;;;89.85;34.05;;;;;;;4.40;53.30;96568.09;5029191;28;20104;-61
2022/01/24 03:32:06;;;;;;;86.80;33.38;;;;;;;5.38;53.25;96698.38;5028902;28;20029;-61
2022/01/24 03:34:31;;;;;;;101.65;36.15;;;;;;;5.74;53.58;96787.81;5029313;28;20394;-61
2022/01/24 03:36:56;;;;;;;85.53;32.63;;;;;;;3.78;54.20;96454.53;5028507;28;20140;-62
2022/01/24 03:39:22;;;;;;;71.50;31.48;;;;;;;3.92;54.09;96513.84;5033424;28;20479;-61
2022/01/24 03:41:47;;;;;;;86.28;32.42;;;;;;;4.77;54.26;96631.13;5032992;28;20075;-61
2022/01/24 03:44:15;;;;;;;80.55;31.20;;;;;;;4.29;54.32;96574.19;5032949;28;20032;-61
2022/01/24 03:47:13;;;;;;;93.45;33.22;;;;;;;5.31;54.04;96724.88;5032467;28;20033;-62
2022/01/24 03:49:45;;;;;;;91.28;33.67;;;;;;;3.72;54.00;96431.78;5013416;28;20037;-62
2022/01/24 03:52:11;;;;;;;89.18;33.95;;;;;;;4.07;53.82;96460.72;5013363;28;20026;-61
2022/01/24 03:54:37;;;;;;;73.85;30.35;;;;;;;4.79;53.55;96626.44;5013445;28;20125;-61
2022/01/24 03:57:03;;;;;;;93.97;33.92;;;;;;;5.78;53.75;96742.44;5020367;28;20029;-60
2022/01/24 03:59:30;;;;;;;76.57;30.17;;;;;;;4.08;53.69;96484.19;5032912;28;20060;-62
2022/01/24 04:01:58;;;;;;;90.50;32.83;;;;;;;5.72;53.68;96766.13;5032815;28;20051;-61
2022/01/24 04:04:24;;;;;;;81.85;31.77;;;;;;;4.15;53.14;96486.72;5032898;28;20406;-59
2022/01/24 04:06:49;;;;;;;91.18;32.80;;;;;;;5.04;53.38;96626.97;5032269;28;20018;-60
2022/01/24 04:09:15;;;;;;;79.45;32.35;;;;;;;3.04;53.98;96377.84;5032941;28;20033;-61
2022/01/24 04:11:41;;;;;;;83.55;32.97;;;;;;;3.16;54.01;96375.22;5032520;28;20072;-61
2022/01/24 04:14:28;;;;;;;85.90;31.85;;;;;;;3.77;54.30;96506.38;5031118;28;20026;-61
2022/01/24 04:21:57;;;;;;;99.22;34.00;;;;;;;5.25;54.32;96735.56;5032681;28;20029;-61
2022/01/24 04:24:24;;;;;;;95.97;33.97;;;;;;;3.49;54.27;96441.25;5032513;28;20168;-61
2022/01/24 04:26:50;;;;;;;82.45;31.98;;;;;;;4.84;54.27;96643.16;5031538;28;20042;-61
2022/01/24 04:29:15;;;;;;;96.18;34.92;;;;;;;3.21;53.69;96417.41;5032240;28;20026;-61
2022/01/24 04:31:43;;;;;;;81.38;32.10;;;;;;;3.31;54.18;96443.97;5032410;28;20033;-61
2022/01/24 04:34:09;;;;;;;82.00;31.30;;;;;;;5.22;54.27;96745.53;5012879;28;20390;-61
2022/01/24 04:36:34;;;;;;;79.60;30.95;;;;;;;3.53;54.49;96473.97;5012017;28;20030;-61
2022/01/24 04:39:00;;;;;;;83.05;31.90;;;;;;;3.26;54.55;96438.56;5012594;28;20026;-61
2022/01/24 04:41:29;;;;;;;74.80;31.10;;;;;;;4.44;54.53;96635.94;5013451;28;20045;-61
2022/01/24 04:44:42;;;;;;;88.80;32.33;;;;;;;3.63;54.26;96492.66;5031872;28;20426;-61
2022/01/24 04:52:10;;;;;;;91.75;34.28;;;;;;;4.59;54.68;96666.31;5032249;28;20135;-61
2022/01/24 04:54:39;;;;;;;91.90;34.60;;;;;;;4.35;54.80;96641.75;5032454;28;20074;-61
2022/01/24 04:57:05;;;;;;;81.75;33.03;;;;;;;2.27;54.69;96306.81;5030962;28;20118;-61
2022/01/24 04:59:31;;;;;;;96.35;35.30;;;;;;;4.16;55.09;96652.38;5031804;28;20057;-61
2022/01/24 05:01:56;;;;;;;96.65;34.05;;;;;;;4.48;55.31;96670.53;5032066;28;20517;-61
2022/01/24 05:04:22;;;;;;;102.65;34.75;;;;;;;4.75;54.98;96714.91;5031783;28;20044;-61
2022/01/24 05:06:48;;;;;;;79.80;31.67;;;;;;;3.16;55.01;96525.88;5031229;28;20036;-61
2022/01/24 05:09:13;;;;;;;102.57;35.03;;;;;;;4.03;54.48;96663.09;5031807;28;20036;-61
2022/01/24 05:11:47;;;;;;;90.32;33.70;;;;;;;3.47;55.30;96550.34;5031369;28;20060;-61
2022/01/24 05:25:08;;;;;;;76.38;30.50;;;;;;;4.64;55.55;96708.59;5031384;28;20064;-61
2022/01/24 05:27:34;;;;;;;73.97;30.42;;;;;;;3.79;55.86;96561.44;5029028;28;20077;-61
2022/01/24 05:29:59;;;;;;;87.68;32.45;;;;;;;3.81;55.88;96622.53;5031156;28;20055;-61
2022/01/24 05:32:25;;;;;;;82.53;31.65;;;;;;;2.45;55.70;96389.97;5031524;28;20554;-61
2022/01/24 05:34:50;;;;;;;85.68;33.42;;;;;;;2.73;55.58;96415.69;5031540;28;20029;-61
2022/01/24 05:37:15;;;;;;;77.80;31.77;;;;;;;3.08;55.36;96498.09;5029664;28;20380;-61
2022/01/24 05:39:41;;;;;;;75.88;30.83;;;;;;;2.47;55.55;96412.38;5031517;28;20026;-61
2022/01/24 05:42:06;;;;;;;78.88;30.70;;;;;;;4.25;55.53;96686.28;5030775;28;20029;-61
2022/01/24 05:44:32;;;;;;;64.55;28.13;;;;;;;2.51;55.80;96455.56;5031072;28;20029;-61
2022/01/24 05:46:57;;;;;;;78.90;29.63;;;;;;;2.48;55.95;96434.97;5030399;28;20574;-61
2022/01/24 05:49:22;;;;;;;69.95;29.40;;;;;;;3.98;55.94;96635.84;5030130;28;20074;-61
2022/01/24 05:51:48;;;;;;;68.38;27.65;;;;;;;3.15;55.74;96495.38;5030898;28;20030;-60
2022/01/24 05:54:13;;;;;;;69.80;28.77;;;;;;;2.56;55.80;96432.06;5031243;28;20056;-60
2022/01/24 05:56:39;;;;;;;81.72;31.48;;;;;;;3.00;56.16;96537.81;5030465;28;20056;-60
2022/01/24 05:59:04;;;;;;;74.50;29.73;;;;;;;2.72;55.65;96438.53;5030226;28;20033;-61
2022/01/24 06:01:29;;;;;;;67.70;27.60;;;;;;;2.55;55.80;96451.44;5029305;28;20112;-61
2022/01/24 06:03:55;;;;;;;71.35;30.00;;;;;;;2.97;55.43;96503.28;5031142;28;20379;-60
2022/01/24 06:06:20;;;;;;;65.45;28.60;;;;;;;2.25;55.78;96384.97;5030122;28;20021;-62
2022/01/24 06:08:46;;;;;;;67.45;29.08;;;;;;;2.99;55.94;96522.28;5030923;28;20025;-61
2022/01/24 06:11:11;;;;;;;69.30;28.48;;;;;;;3.02;56.07;96516.56;5030787;28;20029;-62
2022/01/24 06:13:37;;;;;;;67.20;28.83;;;;;;;2.76;55.61;96465.13;5030180;28;20025;-62
2022/01/24 06:16:03;;;;;;;81.82;30.77;;;;;;;4.72;56.14;96744.38;5029947;28;20407;-61
2022/01/24 06:18:28;;;;;;;80.82;30.73;;;;;;;3.13;55.62;96514.00;5030095;28;20041;-62
2022/01/24 06:20:54;;;;;;;72.68;29.95;;;;;;;2.95;56.01;96487.75;5030489;28;20556;-61
2022/01/24 06:23:20;;;;;;;84.60;30.02;;;;;;;4.14;55.75;96661.53;5030185;28;20436;-61
2022/01/24 06:25:45;;;;;;;68.47;28.20;;;;;;;4.34;55.48;96696.28;5030036;28;20044;-61
2022/01/24 06:28:11;;;;;;;68.50;29.80;;;;;;;4.56;55.55;96720.28;5029715;28;20478;-59
2022/01/24 06:30:37;;;;;;;76.03;30.45;;;;;;;4.50;55.73;96725.63;5030092;28;20033;-64
2022/01/24 06:33:03;;;;;;;75.57;29.80;;;;;;;4.52;55.80;96750.75;5030338;28;20025;-60
2022/01/24 06:35:29;;;;;;;70.95;29.15;;;;;;;4.38;55.63;96715.06;5030047;28;20029;-59
2022/01/24 06:37:54;;;;;;;75.68;29.52;;;;;;;4.69;55.27;96762.22;5029553;28;20371;-59
2022/01/24 06:40:20;;;;;;;79.57;29.98;;;;;;;4.15;54.92;96682.41;5028635;28;20048;-60
2022/01/24 06:42:45;;;;;;;71.30;29.45;;;;;;;3.26;55.24;96552.44;5029850;28;20107;-59
2022/01/24 06:45:11;;;;;;;71.25;29.02;;;;;;;1.94;56.90;96454.16;5029042;28;20433;-62
2022/01/24 06:47:37;;;;;;;77.07;29.80;;;;;;;3.71;56.24;96707.28;5027430;28;20025;-61
2022/01/24 06:50:05;;;;;;;81.18;30.90;;;;;;;2.92;55.72;96517.13;5029518;28;20025;-59
2022/01/24 06:52:31;;;;;;;66.47;27.73;;;;;;;3.06;55.74;96570.31;5029889;28;20104;-61
2022/01/24 06:54:56;;;;;;;77.10;28.98;;;;;;;4.70;55.43;96794.66;5029670;28;20435;-61
2022/01/24 06:57:22;;;;;;;88.25;31.02;;;;;;;4.58;55.76;96759.56;5027638;28;20021;-60
2022/01/24 06:59:47;;;;;;;82.63;30.10;;;;;;;3.02;55.41;96546.31;5029209;28;20108;-59
2022/01/24 07:02:14;;;;;;;78.13;29.80;;;;;;;3.41;55.22;96596.75;5029483;28;20018;-59
2022/01/24 07:04:41;;;;;;;79.22;29.73;;;;;;;2.78;54.95;96471.00;5029487;28;20111;-59
2022/01/24 07:07:08;;;;;;;66.75;27.05;;;;;;;4.79;55.10;96798.59;5028872;28;20021;-60
2022/01/24 07:09:34;;;;;;;63.45;26.88;;;;;;;4.49;54.64;96766.19;5027984;28;20025;-60
2022/01/24 07:11:59;;;;;;;77.18;28.65;;;;;;;4.77;54.84;96782.19;5028515;28;20147;-60
2022/01/24 07:14:25;;;;;;;77.85;29.70;;;;;;;4.22;55.00;96690.19;5028913;28;20151;-60
2022/01/24 07:19:29;;;;;;;66.82;27.33;;;;;;;3.55;55.00;96645.56;5029437;28;20028;-59
2022/01/24 07:21:56;;;;;;;51.10;25.00;;;;;;;3.12;54.88;96582.56;5028017;28;20044;-63
2022/01/24 07:24:22;;;;;;;48.17;23.92;;;;;;;3.22;55.16;96543.38;5029308;28;20363;-60
2022/01/24 07:26:47;;;;;;;56.15;26.08;;;;;;;5.12;54.77;96842.13;5028759;28;20026;-60
2022/01/24 07:29:13;;;;;;;48.47;25.08;;;;;;;4.64;54.91;96690.94;5028902;28;20022;-60
2022/01/24 07:31:38;;;;;;;52.13;25.17;;;;;;;3.44;54.64;96456.13;5028651;28;20044;-60
2022/01/24 07:34:04;;;;;;;39.90;21.67;;;;;;;5.13;53.51;96683.63;5029300;28;20060;-64
2022/01/24 07:36:29;;;;;;;39.72;22.05;;;;;;;4.09;53.57;96501.56;5028922;28;20025;-61
2022/01/24 07:38:55;;;;;;;37.40;21.25;;;;;;;4.43;52.83;96547.38;5029035;28;20022;-62
2022/01/24 07:41:27;;;;;;;41.25;22.60;;;;;;;6.43;52.20;96793.16;5029097;28;20526;-62
2022/01/24 07:43:52;;;;;;;37.13;22.40;;;;;;;5.63;51.97;96624.97;5029340;28;20108;-64
2022/01/24 07:46:18;;;;;;;38.55;23.15;;;;;;;5.28;51.16;96584.72;5029071;28;20095;-63
2022/01/24 07:48:44;;;;;;;37.00;21.13;;;;;;;6.40;51.43;96708.25;5029229;28;20029;-62
2022/01/24 07:51:10;;;;;;;34.33;20.25;;;;;;;6.38;50.80;96713.75;5029032;28;20040;-63
2022/01/24 07:53:35;;;;;;;52.92;24.48;;;;;;;6.75;51.07;96796.06;5029190;28;20364;-65
2022/01/24 07:56:01;;;;;;;36.45;21.85;;;;;;;6.85;50.72;96813.16;5028988;28;20036;-65
2022/01/24 07:58:28;;;;;;;33.92;20.40;;;;;;;6.73;50.67;96792.88;5028412;28;20025;-64
2022/01/24 08:00:53;;;;;;;32.47;20.80;;;;;;;7.04;50.98;96817.19;5028900;28;20152;-64
2022/01/24 08:03:19;;;;;;;36.72;22.58;;;;;;;7.40;50.90;96809.81;5029207;28;20075;-64
2022/01/24 08:05:44;;;;;;;38.67;22.40;;;;;;;7.29;50.63;96807.00;5028878;28;20406;-63
2022/01/24 08:08:10;;;;;;;40.00;23.38;;;;;;;7.24;50.71;96814.88;5028730;28;20029;-64
2022/01/24 08:10:36;;;;;;;32.45;21.20;;;;;;;6.60;49.72;96687.41;5028990;28;20032;-63
2022/01/24 08:13:03;;;;;;;32.97;20.50;;;;;;;7.73;49.53;96816.91;5028600;28;20041;-64
2022/01/24 08:15:28;;;;;;;39.47;22.10;;;;;;;7.78;49.32;96811.69;5028750;28;20487;-63
2022/01/24 08:17:55;;;;;;;41.85;24.52;;;;;;;7.71;48.90;96792.50;5028473;28;20025;-66
2022/01/24 08:20:21;;;;;;;32.78;20.75;;;;;;;6.14;48.21;96565.16;5027876;28;20079;-64
2022/01/24 08:22:47;;;;;;;28.67;20.35;;;;;;;7.38;48.40;96773.00;5028911;28;20026;-63
2022/01/24 08:25:14;;;;;;;34.08;21.63;;;;;;;7.70;48.89;96817.41;5030707;28;20740;-65
2022/01/24 08:27:39;;;;;;;44.30;24.52;;;;;;;7.50;48.94;96764.94;5032024;28;20026;-62
2022/01/24 08:30:09;;;;;;;35.47;21.88;;;;;;;7.84;49.07;96823.94;5032548;28;20084;-63
2022/01/24 08:32:34;;;;;;;30.90;20.65;;;;;;;7.03;48.91;96712.41;5032553;28;20060;-62
2022/01/24 08:35:00;;;;;;;31.50;20.67;;;;;;;7.98;48.32;96789.94;5032737;28;20041;-63
2022/01/24 08:37:26;;;;;;;26.25;18.25;;;;;;;7.91;47.75;96781.38;5029733;28;20030;-62
2022/01/24 08:39:51;;;;;;;43.63;22.30;;;;;;;7.95;48.60;96777.97;5031970;28;20057;-63
2022/01/24 08:42:25;;;;;;;34.45;21.45;;;;;;;6.65;48.66;96565.06;5032125;28;20029;-62
2022/01/24 08:47:19;;;;;;;35.10;18.98;;;;;;;8.64;48.21;96817.22;5031470;28;20044;-63
2022/01/24 08:49:44;;;;;;;31.55;20.42;;;;;;;8.46;48.02;96753.91;5032214;28;20021;-63
2022/01/24 08:52:10;;;;;;;38.13;21.58;;;;;;;9.11;47.44;96813.94;5031669;28;20017;-63
2022/01/24 08:54:35;;;;;;;31.85;18.60;;;;;;;8.61;46.97;96750.63;5031894;28;20044;-63
2022/01/24 08:57:02;;;;;;;35.70;20.33;;;;;;;8.80;47.19;96781.84;5031238;28;20025;-62
2022/01/24 08:59:27;;;;;;;37.03;21.00;;;;;;;8.40;46.75;96710.66;5030562;28;20059;-63
2022/01/24 09:01:53;;;;;;;35.33;20.58;;;;;;;8.38;46.72;96704.78;5031890;28;20506;-63
2022/01/24 09:04:19;;;;;;;37.60;21.70;;;;;;;8.86;46.81;96774.72;5030698;28;20026;-61
2022/01/24 09:06:45;;;;;;;40.00;21.20;;;;;;;8.53;46.99;96726.13;5030523;28;20026;-62
2022/01/24 09:09:12;;;;;;;41.95;21.92;;;;;;;9.09;47.14;96800.09;5031538;28;20459;-63
2022/01/24 09:11:37;;;;;;;43.75;22.35;;;;;;;9.19;46.12;96845.31;5031655;28;20035;-61
2022/01/24 09:14:05;;;;;;;36.25;21.58;;;;;;;8.27;46.88;96690.59;5031805;28;20037;-60
2022/01/24 09:16:31;;;;;;;37.80;21.75;;;;;;;6.99;46.77;96499.66;5030978;28;20026;-62
2022/01/24 09:18:57;;;;;;;38.03;21.13;;;;;;;9.30;47.10;96835.56;5031679;28;20021;-63
2022/01/24 09:21:24;;;;;;;36.13;20.73;;;;;;;8.22;46.78;96673.84;5031289;28;20052;-62
2022/01/24 09:23:50;;;;;;;39.38;20.95;;;;;;;8.84;46.61;96804.13;5031273;28;20386;-63
2022/01/24 09:26:16;;;;;;;39.83;22.30;;;;;;;8.25;46.45;96676.00;5031051;28;20030;-62
2022/01/24 09:28:41;;;;;;;35.78;20.20;;;;;;;9.28;46.78;96819.91;5031465;28;20060;-62
2022/01/24 09:31:07;;;;;;;40.67;22.48;;;;;;;7.72;46.93;96566.31;5031275;28;20056;-61
2022/01/24 09:33:33;;;;;;;38.72;21.50;;;;;;;8.27;47.02;96671.25;5030095;28;20048;-61
2022/01/24 09:36:00;;;;;;;37.80;21.40;;;;;;;9.09;46.29;96760.28;5030017;28;20398;-62
2022/01/24 09:38:33;;;;;;;37.53;21.13;;;;;;;9.35;46.15;96796.56;5030709;28;20046;-61
2022/01/24 09:41:01;;;;;;;40.90;23.10;;;;;;;9.20;46.06;96745.22;5030710;28;20482;-62
2022/01/24 09:43:27;;;;;;;38.60;22.38;;;;;;;9.50;45.71;96774.63;5031137;28;20025;-61
2022/01/24 09:45:53;;;;;;;37.90;22.20;;;;;;;8.15;45.50;96559.28;5029517;28;20052;-62
2022/01/24 09:48:19;;;;;;;37.92;23.48;;;;;;;8.82;45.57;96639.09;5030648;28;20049;-62
2022/01/24 09:50:46;;;;;;;41.67;24.23;;;;;;;10.09;45.30;96816.16;5030767;28;20052;-62
2022/01/24 09:53:15;;;;;;;44.17;23.73;;;;;;;10.47;44.95;96852.22;5030621;28;20068;-62
2022/01/24 09:55:41;;;;;;;48.97;26.02;;;;;;;10.40;44.97;96863.09;5030733;28;20029;-62
2022/01/24 09:58:06;;;;;;;37.80;22.85;;;;;;;10.53;45.59;96855.69;5030281;28;20083;-63
2022/01/24 10:00:32;;;;;;;52.20;27.35;;;;;;;9.99;44.87;96768.25;5029500;28;20116;-61
2022/01/24 10:02:58;;;;;;;39.10;22.85;;;;;;;8.93;44.67;96639.16;5030737;28;20478;-61
2022/01/24 10:05:30;;;;;;;34.22;21.27;;;;;;;8.40;45.89;96630.31;5030837;28;20057;-61
2022/01/24 10:08:02;;;;;;;36.95;22.05;;;;;;;9.62;46.34;96859.44;5029356;28;20108;-61
2022/01/24 10:10:39;;;;;;;39.75;21.45;;;;;;;8.34;46.76;96695.69;5030365;28;20025;-61
2022/01/24 10:19:16;;;;;;;54.72;25.40;;;;;;;8.59;48.04;96860.38;5030553;28;20180;-61
2022/01/24 10:22:00;;;;;;;42.72;22.95;;;;;;;7.66;49.24;96793.22;5030233;28;20072;-61
2022/01/24 10:24:28;;;;;;;57.85;26.90;;;;;;;8.01;49.91;96856.50;5030285;28;20410;-61
2022/01/24 10:27:20;;;;;;;49.28;25.38;;;;;;;8.07;50.28;96857.34;5029635;28;20021;-62
2022/01/24 10:30:02;;;;;;;55.55;24.85;;;;;;;7.15;50.51;96731.63;5030244;28;20025;-61
2022/01/24 10:32:33;;;;;;;;;;;;;;;7.91;50.55;96855.56;5030941;28;20036;-59
2022/01/24 10:35:20;;;;;;;43.33;22.95;;;;;;;7.62;51.52;96850.38;5029044;28;19999;-62
2022/01/24 10:37:49;;;;;;;41.42;22.50;;;;;;;6.17;51.08;96596.34;5028855;28;20033;-62
2022/01/24 10:40:45;;;;;;;39.45;21.63;;;;;;;8.00;51.17;96848.78;5028797;28;20045;-62
2022/01/24 10:43:21;;;;;;;40.75;21.77;;;;;;;7.81;50.27;96817.28;5028935;28;20100;-62
2022/01/24 10:45:48;;;;;;;35.65;20.98;;;;;;;7.45;50.44;96727.81;5029904;28;20100;-63
2022/01/24 10:48:19;;;;;;;34.15;19.27;;;;;;;8.27;50.31;96878.81;5028924;28;20374;-63
2022/01/24 10:50:45;;;;;;;30.75;19.17;;;;;;;6.86;49.79;96611.94;5029934;28;20124;-63
2022/01/24 10:53:13;;;;;;;28.77;18.27;;;;;;;8.53;49.69;96857.94;5029604;28;20096;-66
2022/01/24 10:55:40;;;;;;;37.22;20.25;;;;;;;7.80;49.70;96699.13;5029634;28;20056;-63
2022/01/24 10:58:18;;;;;;;25.60;18.45;;;;;;;8.05;49.52;96717.16;5029051;28;20025;-63
2022/01/24 11:00:45;;;;;;;29.52;18.83;;;;;;;7.86;49.00;96615.19;5029625;28;20029;-64
2022/01/24 11:03:18;;;;;;;24.70;17.58;;;;;;;7.78;47.84;96582.03;5029877;28;20026;-64
2022/01/24 11:05:44;;;;;;;24.35;16.95;;;;;;;8.43;47.55;96598.75;5029518;28;20065;-64
2022/01/24 11:08:15;;;;;;;21.73;15.90;;;;;;;8.95;46.97;96629.88;5028027;28;20514;-63
2022/01/24 11:10:45;;;;;;;21.73;16.38;;;;;;;10.79;45.41;96825.41;5029377;28;20051;-64
2022/01/24 11:13:12;;;;;;;22.98;16.38;;;;;;;10.93;44.57;96820.38;5021801;28;20030;-65
2022/01/24 11:15:41;;;;;;;20.67;15.68;;;;;;;9.99;44.45;96624.69;5029519;28;20310;-64
2022/01/24 11:18:09;;;;;;;23.63;17.70;;;;;;;9.68;44.51;96571.50;5029075;28;20022;-64
2022/01/24 11:20:39;;;;;;;17.88;15.82;;;;;;;9.90;43.87;96617.22;5028191;28;20391;-64
2022/01/24 11:23:06;;;;;;;17.13;14.50;;;;;;;10.33;44.40;96737.53;5028741;28;20475;-64
2022/01/24 11:25:44;;;;;;;17.45;14.93;;;;;;;10.98;44.11;96815.06;5029093;28;20031;-64
2022/01/24 11:28:10;;;;;;;17.95;14.80;;;;;;;10.57;44.30;96755.66;5020852;28;20471;-64
2022/01/24 11:30:52;;;;;;;19.80;15.40;;;;;;;10.27;44.43;96701.34;5029186;28;20364;-64
2022/01/24 11:33:22;;;;;;;16.30;14.55;;;;;;;10.20;44.25;96731.88;5029505;28;20144;-64
2022/01/24 11:35:52;;;;;;;16.35;14.13;;;;;;;10.61;43.96;96791.34;5029238;28;20056;-64
2022/01/24 11:38:38;;;;;;;15.40;12.73;;;;;;;10.80;43.80;96802.25;5028063;28;20029;-64
2022/01/24 11:41:22;;;;;;;18.88;13.77;;;;;;;10.90;43.93;96811.09;5029076;28;20079;-63
2022/01/24 11:43:53;;;;;;;16.35;14.45;;;;;;;10.82;44.26;96770.88;5029283;28;20024;-63
2022/01/24 11:46:47;;;;;;;16.90;14.67;;;;;;;11.53;43.82;96794.03;5028976;28;20419;-63
2022/01/24 11:49:27;;;;;;;17.33;15.50;;;;;;;11.90;43.31;96791.81;5029451;28;20036;-63
2022/01/24 11:52:16;;;;;;;20.20;15.70;;;;;;;11.77;43.20;96797.69;5028884;28;20510;-67
2022/01/24 11:54:46;;;;;;;18.08;16.10;;;;;;;11.59;42.77;96798.28;5029189;28;20538;-64
2022/01/24 11:57:22;;;;;;;21.55;16.98;;;;;;;11.39;42.81;96777.78;5028518;28;20074;-64
2022/01/24 12:00:12;;;;;;;21.95;17.30;;;;;;;11.22;43.41;96796.72;5031801;28;20068;-63
2022/01/24 12:02:52;;;;;;;18.45;15.98;;;;;;;10.37;44.73;96775.03;5032784;28;20026;-63
2022/01/24 12:05:24;;;;;;;20.25;16.35;;;;;;;9.95;45.40;96772.47;5032760;28;20189;-63
2022/01/24 12:07:56;;;;;;;20.25;16.35;;;;;;;9.73;46.01;96770.00;5031922;28;20025;-63
2022/01/24 12:10:26;;;;;;;22.00;17.35;;;;;;;9.79;46.23;96785.69;5032522;28;20037;-63
2022/01/24 12:12:55;;;;;;;23.55;16.90;;;;;;;9.78;46.87;96793.94;5032675;28;20048;-63
2022/01/24 12:15:57;;;;;;;19.55;14.48;;;;;;;9.06;47.87;96784.69;5031553;28;20053;-63
2022/01/24 12:18:26;;;;;;;19.90;15.02;;;;;;;9.38;47.87;96790.78;5030980;28;20105;-63
2022/01/24 12:20:55;;;;;;;21.73;16.50;;;;;;;9.08;48.36;96756.84;5032686;28;20033;-63
2022/01/24 12:23:24;;;;;;;24.60;15.15;;;;;;;9.48;48.03;96775.97;5032305;28;20444;-62
2022/01/24 12:26:12;;;;;;;19.05;16.17;;;;;;;9.49;47.63;96762.41;5032610;28;20516;-63
2022/01/24 12:28:46;;;;;;;21.08;16.40;;;;;;;9.70;47.30;96776.59;5032348;28;20112;-62
2022/01/24 12:31:26;;;;;;;20.33;16.50;;;;;;;9.47;48.11;96777.81;5031470;28;20096;-63
2022/01/24 12:33:54;;;;;;;21.10;16.50;;;;;;;9.44;47.83;96774.88;5032653;28;20056;-63
2022/01/24 12:36:48;;;;;;;21.55;17.05;;;;;;;9.19;48.18;96772.84;5030611;28;20021;-63
2022/01/24 12:39:19;;;;;;;21.77;16.90;;;;;;;9.23;48.70;96776.59;5030583;28;20045;-63
2022/01/24 12:41:49;;;;;;;25.42;17.25;;;;;;;9.24;48.91;96775.53;5032430;28;20025;-63
2022/01/24 12:47:01;;;;;;;26.45;17.25;;;;;;;8.28;49.22;96649.78;5032009;28;20044;-64
2022/01/24 12:49:28;;;;;;;23.63;16.98;;;;;;;8.74;49.67;96742.22;5032307;28;20022;-63
2022/01/24 12:51:54;;;;;;;27.02;17.65;;;;;;;8.71;50.14;96737.44;5031840;28;20061;-64
2022/01/24 12:54:28;;;;;;;19.65;16.33;;;;;;;8.63;49.81;96761.75;5030733;28;20026;-64
2022/01/24 12:57:07;;;;;;;25.98;17.25;;;;;;;9.02;48.96;96762.38;5031539;28;20021;-64
2022/01/24 12:59:35;;;;;;;21.20;16.08;;;;;;;9.13;49.45;96761.38;5031939;28;20627;-63
2022/01/24 13:02:03;;;;;;;22.52;15.85;;;;;;;9.09;49.24;96745.16;5032454;28;20030;-63
2022/01/24 13:04:39;;;;;;;22.40;16.67;;;;;;;8.90;49.37;96748.44;5031942;28;20036;-64
2022/01/24 13:07:06;;;;;;;25.00;16.90;;;;;;;8.96;49.92;96761.53;5031073;28;20419;-63
2022/01/24 13:09:34;;;;;;;18.38;15.50;;;;;;;8.92;49.29;96727.78;5031479;28;20382;-63
2022/01/24 13:12:03;;;;;;;23.42;16.58;;;;;;;9.07;48.89;96718.06;5030997;28;20033;-63